PWSweather.com
Personal Weather Stations
Station Observations
KCAOCEAN4
Jeffries Ranch, Oceanside, CA 92057

Jeffries RanchOceanside, CA 92057

Lat: 33.24433789, Lon: -117.25337219

Elevation: 207

Station Type: Davis Vantage Vue

jeffriesranchweather.com

High Low Average
Temperature 75.4°F24.1°F 62.1°F16.7°F 66.4°F19.1°F
Dew Point 64.6°F18.1°F 60.4°F15.8°F 61.7°F16.5°F
Winds 6.9 mph SW11.1 mph SW Calm Calm 2.3 mph 3.7 mph
Wind Gusts 14.1 mph22.7 mph -- 5.5 mph8.9 mph
Humidity 96% 68% 85%
Pressure 29.83 in1010.20 in 29.68 in1005.10 in -
Precipitation 0.00 in0.00 in - -
Hour Temp Dew Point Humidity Winds Wind Gusts Pressure Precip Precip Rate Daily Precip Total
12:05 AM 63.0°F17.2°C 61.0°F16.1°C 93% Calm Calm 0.9 mph1.4 kmh 29.70 in1005.8 mb 0.00 in0.0 mm 0.00 in0.0 mm 0.00 in0.0 mm
12:15 AM 63.0°F17.2°C 61.0°F16.1°C 93% Calm Calm 0.9 mph1.4 kmh 29.70 in1005.8 mb 0.00 in0.0 mm 0.00 in0.0 mm 0.00 in0.0 mm
12:25 AM 63.0°F17.2°C 61.0°F16.1°C 93% Calm Calm 0.9 mph1.4 kmh 29.70 in1005.8 mb 0.00 in0.0 mm 0.00 in0.0 mm 0.00 in0.0 mm
12:35 AM 63.0°F17.2°C 61.0°F16.1°C 93% Calm Calm 2.0 mph3.2 kmh 29.70 in1005.8 mb 0.00 in0.0 mm 0.00 in0.0 mm 0.00 in0.0 mm
12:45 AM 63.0°F17.2°C 61.0°F16.1°C 93% Calm Calm 2.0 mph3.2 kmh 29.69 in1005.4 mb 0.00 in0.0 mm 0.00 in0.0 mm 0.00 in0.0 mm
12:55 AM 63.0°F17.2°C 61.0°F16.1°C 93% Calm Calm 2.0 mph3.2 kmh 29.70 in1005.8 mb 0.00 in0.0 mm 0.00 in0.0 mm 0.00 in0.0 mm
01:05 AM 63.0°F17.2°C 61.0°F16.1°C 93% 0.9 mph WSW1.4 kmh WSW 2.9 mph4.7 kmh 29.69 in1005.4 mb 0.00 in0.0 mm 0.00 in0.0 mm 0.00 in0.0 mm
01:15 AM 63.0°F17.2°C 61.0°F16.1°C 93% Calm Calm 2.0 mph3.2 kmh 29.69 in1005.4 mb 0.00 in0.0 mm 0.00 in0.0 mm 0.00 in0.0 mm
01:25 AM 63.0°F17.2°C 61.0°F16.1°C 93% Calm Calm 2.0 mph3.2 kmh 29.69 in1005.4 mb 0.00 in0.0 mm 0.00 in0.0 mm 0.00 in0.0 mm
01:35 AM 63.0°F17.2°C 61.0°F16.1°C 93% 0.9 mph S1.4 kmh S 2.0 mph3.2 kmh 29.69 in1005.4 mb 0.00 in0.0 mm 0.00 in0.0 mm 0.00 in0.0 mm
01:45 AM 63.0°F17.2°C 61.0°F16.1°C 93% 0.9 mph WSW1.4 kmh WSW 3.0 mph4.8 kmh 29.69 in1005.4 mb 0.00 in0.0 mm 0.00 in0.0 mm 0.00 in0.0 mm
01:55 AM 63.0°F17.2°C 61.0°F16.1°C 93% 0.9 mph WSW1.4 kmh WSW 2.0 mph3.2 kmh 29.70 in1005.8 mb 0.00 in0.0 mm 0.00 in0.0 mm 0.00 in0.0 mm
02:05 AM 63.0°F17.2°C 61.0°F16.1°C 93% 0.9 mph SW1.4 kmh SW 4.0 mph6.4 kmh 29.70 in1005.8 mb 0.00 in0.0 mm 0.00 in0.0 mm 0.00 in0.0 mm
02:15 AM 62.8°F17.1°C 60.8°F16.0°C 93% 0.9 mph WSW1.4 kmh WSW 4.0 mph6.4 kmh 29.69 in1005.4 mb 0.00 in0.0 mm 0.00 in0.0 mm 0.00 in0.0 mm
02:25 AM 62.8°F17.1°C 60.8°F16.0°C 93% Calm Calm -- 29.69 in1005.4 mb 0.00 in0.0 mm 0.00 in0.0 mm 0.00 in0.0 mm
02:35 AM 62.6°F17.0°C 60.6°F15.9°C 93% Calm Calm 2.0 mph3.2 kmh 29.70 in1005.8 mb 0.00 in0.0 mm 0.00 in0.0 mm 0.00 in0.0 mm
02:45 AM 62.4°F16.9°C 60.4°F15.8°C 93% Calm Calm 0.9 mph1.4 kmh 29.69 in1005.4 mb 0.00 in0.0 mm 0.00 in0.0 mm 0.00 in0.0 mm
02:55 AM 62.6°F17.0°C 60.8°F16.0°C 94% Calm Calm 2.0 mph3.2 kmh 29.69 in1005.4 mb 0.00 in0.0 mm 0.00 in0.0 mm 0.00 in0.0 mm
03:05 AM 62.4°F16.9°C 60.6°F15.9°C 94% 0.9 mph WSW1.4 kmh WSW 2.9 mph4.7 kmh 29.69 in1005.4 mb 0.00 in0.0 mm 0.00 in0.0 mm 0.00 in0.0 mm
03:15 AM 62.4°F16.9°C 60.6°F15.9°C 94% 0.9 mph W1.4 kmh W 2.9 mph4.7 kmh 29.69 in1005.4 mb 0.00 in0.0 mm 0.00 in0.0 mm 0.00 in0.0 mm
03:25 AM 62.4°F16.9°C 60.6°F15.9°C 94% Calm Calm 2.0 mph3.2 kmh 29.69 in1005.4 mb 0.00 in0.0 mm 0.00 in0.0 mm 0.00 in0.0 mm
03:35 AM 62.4°F16.9°C 60.6°F15.9°C 94% Calm Calm 2.0 mph3.2 kmh 29.68 in1005.1 mb 0.00 in0.0 mm 0.00 in0.0 mm 0.00 in0.0 mm
03:45 AM 62.2°F16.8°C 60.4°F15.8°C 94% 0.9 mph SSE1.4 kmh SSE 2.0 mph3.2 kmh 29.68 in1005.1 mb 0.00 in0.0 mm 0.00 in0.0 mm 0.00 in0.0 mm
03:55 AM 62.2°F16.8°C 60.4°F15.8°C 94% Calm Calm 3.0 mph4.8 kmh 29.68 in1005.1 mb 0.00 in0.0 mm 0.00 in0.0 mm 0.00 in0.0 mm
04:05 AM 62.2°F16.8°C 60.8°F16.0°C 95% Calm Calm 0.9 mph1.4 kmh 29.69 in1005.4 mb 0.00 in0.0 mm 0.00 in0.0 mm 0.00 in0.0 mm
04:15 AM 62.2°F16.8°C 60.8°F16.0°C 95% Calm Calm 0.9 mph1.4 kmh 29.69 in1005.4 mb 0.00 in0.0 mm 0.00 in0.0 mm 0.00 in0.0 mm
04:25 AM 62.2°F16.8°C 60.8°F16.0°C 95% Calm Calm 2.0 mph3.2 kmh 29.69 in1005.4 mb 0.00 in0.0 mm 0.00 in0.0 mm 0.00 in0.0 mm
04:35 AM 62.2°F16.8°C 60.8°F16.0°C 95% 0.9 mph W1.4 kmh W 2.0 mph3.2 kmh 29.69 in1005.4 mb 0.00 in0.0 mm 0.00 in0.0 mm 0.00 in0.0 mm
04:45 AM 62.2°F16.8°C 60.8°F16.0°C 95% Calm Calm 1.0 mph1.6 kmh 29.69 in1005.4 mb 0.00 in0.0 mm 0.00 in0.0 mm 0.00 in0.0 mm
04:55 AM 62.2°F16.8°C 60.8°F16.0°C 95% Calm Calm 0.9 mph1.4 kmh 29.70 in1005.8 mb 0.00 in0.0 mm 0.00 in0.0 mm 0.00 in0.0 mm
05:05 AM 62.2°F16.8°C 60.8°F16.0°C 95% Calm Calm 2.0 mph3.2 kmh 29.70 in1005.8 mb 0.00 in0.0 mm 0.00 in0.0 mm 0.00 in0.0 mm
05:15 AM 62.4°F16.9°C 61.0°F16.1°C 95% Calm Calm 2.0 mph3.2 kmh 29.70 in1005.8 mb 0.00 in0.0 mm 0.00 in0.0 mm 0.00 in0.0 mm
05:25 AM 62.2°F16.8°C 60.8°F16.0°C 95% 0.9 mph WSW1.4 kmh WSW 2.9 mph4.7 kmh 29.70 in1005.8 mb 0.00 in0.0 mm 0.00 in0.0 mm 0.00 in0.0 mm
05:35 AM 62.2°F16.8°C 60.8°F16.0°C 95% 0.9 mph W1.4 kmh W 2.9 mph4.7 kmh 29.71 in1006.1 mb 0.00 in0.0 mm 0.00 in0.0 mm 0.00 in0.0 mm
05:45 AM 62.1°F16.7°C 60.6°F15.9°C 95% 0.9 mph W1.4 kmh W 2.0 mph3.2 kmh 29.71 in1006.1 mb 0.00 in0.0 mm 0.00 in0.0 mm 0.00 in0.0 mm
05:55 AM 62.1°F16.7°C 60.6°F15.9°C 95% Calm Calm 2.9 mph4.7 kmh 29.71 in1006.1 mb 0.00 in0.0 mm 0.00 in0.0 mm 0.00 in0.0 mm
06:05 AM 62.1°F16.7°C 60.6°F15.9°C 95% 0.9 mph SE1.4 kmh SE 2.9 mph4.7 kmh 29.71 in1006.1 mb 0.00 in0.0 mm 0.00 in0.0 mm 0.00 in0.0 mm
06:15 AM 62.1°F16.7°C 60.6°F15.9°C 95% Calm Calm 2.0 mph3.2 kmh 29.71 in1006.1 mb 0.00 in0.0 mm 0.00 in0.0 mm 0.00 in0.0 mm
06:25 AM 62.1°F16.7°C 60.6°F15.9°C 95% 0.9 mph W1.4 kmh W 2.0 mph3.2 kmh 29.72 in1006.4 mb 0.00 in0.0 mm 0.00 in0.0 mm 0.00 in0.0 mm
06:35 AM 62.2°F16.8°C 60.8°F16.0°C 95% Calm Calm 0.9 mph1.4 kmh 29.72 in1006.4 mb 0.00 in0.0 mm 0.00 in0.0 mm 0.00 in0.0 mm
06:45 AM 62.2°F16.8°C 60.8°F16.0°C 95% Calm Calm 0.9 mph1.4 kmh 29.72 in1006.4 mb 0.00 in0.0 mm 0.00 in0.0 mm 0.00 in0.0 mm
06:55 AM 62.1°F16.7°C 60.6°F15.9°C 95% 0.9 mph NW1.4 kmh NW 3.0 mph4.8 kmh 29.73 in1006.8 mb 0.00 in0.0 mm 0.00 in0.0 mm 0.00 in0.0 mm
07:05 AM 62.1°F16.7°C 61.0°F16.1°C 96% Calm Calm 0.9 mph1.4 kmh 29.73 in1006.8 mb 0.00 in0.0 mm 0.00 in0.0 mm 0.00 in0.0 mm
07:15 AM 62.1°F16.7°C 60.6°F15.9°C 95% 0.9 mph W1.4 kmh W 4.0 mph6.4 kmh 29.74 in1007.1 mb 0.00 in0.0 mm 0.00 in0.0 mm 0.00 in0.0 mm
07:25 AM 62.2°F16.8°C 60.8°F16.0°C 95% 0.9 mph SW1.4 kmh SW 2.9 mph4.7 kmh 29.75 in1007.5 mb 0.00 in0.0 mm 0.00 in0.0 mm 0.00 in0.0 mm
07:35 AM 62.2°F16.8°C 61.2°F16.2°C 96% 0.9 mph SW1.4 kmh SW 2.0 mph3.2 kmh 29.75 in1007.5 mb 0.00 in0.0 mm 0.00 in0.0 mm 0.00 in0.0 mm
07:45 AM 62.2°F16.8°C 60.8°F16.0°C 95% Calm Calm 2.0 mph3.2 kmh 29.76 in1007.8 mb 0.00 in0.0 mm 0.00 in0.0 mm 0.00 in0.0 mm
08:05 AM 62.8°F17.1°C 61.3°F16.3°C 95% 2.0 mph SW3.2 kmh SW 4.0 mph6.4 kmh 29.77 in1008.1 mb 0.00 in0.0 mm 0.00 in0.0 mm 0.00 in0.0 mm
08:15 AM 62.8°F17.1°C 61.3°F16.3°C 95% 0.9 mph ESE1.4 kmh ESE 2.9 mph4.7 kmh 29.77 in1008.1 mb 0.00 in0.0 mm 0.00 in0.0 mm 0.00 in0.0 mm
08:25 AM 63.1°F17.3°C 61.3°F16.3°C 94% 0.9 mph SE1.4 kmh SE 2.0 mph3.2 kmh 29.77 in1008.1 mb 0.00 in0.0 mm 0.00 in0.0 mm 0.00 in0.0 mm
08:35 AM 63.1°F17.3°C 61.2°F16.2°C 93% Calm Calm 0.9 mph1.4 kmh 29.78 in1008.5 mb 0.00 in0.0 mm 0.00 in0.0 mm 0.00 in0.0 mm
08:45 AM 63.3°F17.4°C 61.0°F16.1°C 92% 0.9 mph SW1.4 kmh SW 4.0 mph6.4 kmh 29.78 in1008.5 mb 0.00 in0.0 mm 0.00 in0.0 mm 0.00 in0.0 mm
08:55 AM 63.3°F17.4°C 61.0°F16.1°C 92% 2.0 mph SW3.2 kmh SW 4.0 mph6.4 kmh 29.78 in1008.5 mb 0.00 in0.0 mm 0.00 in0.0 mm 0.00 in0.0 mm
09:05 AM 63.7°F17.6°C 61.0°F16.1°C 91% 2.0 mph SSW3.2 kmh SSW 4.0 mph6.4 kmh 29.78 in1008.5 mb 0.00 in0.0 mm 0.00 in0.0 mm 0.00 in0.0 mm
09:15 AM 64.2°F17.9°C 61.2°F16.2°C 90% 0.9 mph SSW1.4 kmh SSW 2.9 mph4.7 kmh 29.78 in1008.5 mb 0.00 in0.0 mm 0.00 in0.0 mm 0.00 in0.0 mm
09:25 AM 64.2°F17.9°C 61.2°F16.2°C 90% 0.9 mph NW1.4 kmh NW 2.9 mph4.7 kmh 29.78 in1008.5 mb 0.00 in0.0 mm 0.00 in0.0 mm 0.00 in0.0 mm
09:35 AM 64.6°F18.1°C 61.5°F16.4°C 90% 0.9 mph WNW1.4 kmh WNW 4.0 mph6.4 kmh 29.78 in1008.5 mb 0.00 in0.0 mm 0.00 in0.0 mm 0.00 in0.0 mm
09:45 AM 64.2°F17.9°C 61.5°F16.4°C 91% 2.0 mph W3.2 kmh W 4.0 mph6.4 kmh 29.78 in1008.5 mb 0.00 in0.0 mm 0.00 in0.0 mm 0.00 in0.0 mm
09:55 AM 64.4°F18.0°C 61.7°F16.5°C 91% 2.9 mph SW4.7 kmh SW 6.0 mph9.7 kmh 29.78 in1008.5 mb 0.00 in0.0 mm 0.00 in0.0 mm 0.00 in0.0 mm
10:05 AM 64.8°F18.2°C 61.7°F16.5°C 90% 0.9 mph SW1.4 kmh SW 2.9 mph4.7 kmh 29.79 in1008.8 mb 0.00 in0.0 mm 0.00 in0.0 mm 0.00 in0.0 mm
10:15 AM 64.8°F18.2°C 61.7°F16.5°C 90% 2.0 mph NW3.2 kmh NW 6.0 mph9.7 kmh 29.79 in1008.8 mb 0.00 in0.0 mm 0.00 in0.0 mm 0.00 in0.0 mm
10:25 AM 64.9°F18.3°C 61.9°F16.6°C 90% 2.0 mph SW3.2 kmh SW 4.0 mph6.4 kmh 29.80 in1009.1 mb 0.00 in0.0 mm 0.00 in0.0 mm 0.00 in0.0 mm
10:35 AM 65.8°F18.8°C 62.2°F16.8°C 88% 2.0 mph WNW3.2 kmh WNW 4.9 mph7.9 kmh 29.80 in1009.1 mb 0.00 in0.0 mm 0.00 in0.0 mm 0.00 in0.0 mm
10:45 AM 66.0°F18.9°C 62.1°F16.7°C 87% 2.0 mph WNW3.2 kmh WNW 6.0 mph9.7 kmh 29.80 in1009.1 mb 0.00 in0.0 mm 0.00 in0.0 mm 0.00 in0.0 mm
10:55 AM 65.8°F18.8°C 61.9°F16.6°C 87% 2.0 mph WNW3.2 kmh WNW 7.0 mph11.3 kmh 29.80 in1009.1 mb 0.00 in0.0 mm 0.00 in0.0 mm 0.00 in0.0 mm
11:05 AM 66.4°F19.1°C 62.1°F16.7°C 86% 2.9 mph NW4.7 kmh NW 4.9 mph7.9 kmh 29.80 in1009.1 mb 0.00 in0.0 mm 0.00 in0.0 mm 0.00 in0.0 mm
11:15 AM 66.4°F19.1°C 62.4°F16.9°C 87% 2.9 mph SE4.7 kmh SE 6.0 mph9.7 kmh 29.80 in1009.1 mb 0.00 in0.0 mm 0.00 in0.0 mm 0.00 in0.0 mm
11:26 AM 67.5°F19.7°C 62.8°F17.1°C 85% 2.0 mph WSW3.2 kmh WSW 6.0 mph9.7 kmh 29.80 in1009.1 mb 0.00 in0.0 mm 0.00 in0.0 mm 0.00 in0.0 mm
11:36 AM 67.8°F19.9°C 62.4°F16.9°C 83% 2.0 mph W3.2 kmh W 7.0 mph11.3 kmh 29.80 in1009.1 mb 0.00 in0.0 mm 0.00 in0.0 mm 0.00 in0.0 mm
11:46 AM 68.4°F20.2°C 63.0°F17.2°C 83% 2.9 mph WSW4.7 kmh WSW 6.9 mph11.1 kmh 29.80 in1009.1 mb 0.00 in0.0 mm 0.00 in0.0 mm 0.00 in0.0 mm
11:56 AM 68.7°F20.4°C 62.6°F17.0°C 81% 2.9 mph WNW4.7 kmh WNW 8.1 mph13.0 kmh 29.80 in1009.1 mb 0.00 in0.0 mm 0.00 in0.0 mm 0.00 in0.0 mm
12:06 PM 69.6°F20.9°C 63.1°F17.3°C 80% 2.9 mph NW4.7 kmh NW 8.1 mph13.0 kmh 29.80 in1009.1 mb 0.00 in0.0 mm 0.00 in0.0 mm 0.00 in0.0 mm
12:16 PM 70.0°F21.1°C 63.1°F17.3°C 79% 4.0 mph WSW6.4 kmh WSW 10.1 mph16.3 kmh 29.80 in1009.1 mb 0.00 in0.0 mm 0.00 in0.0 mm 0.00 in0.0 mm
12:26 PM 70.5°F21.4°C 63.3°F17.4°C 78% 4.0 mph WSW6.4 kmh WSW 9.0 mph14.5 kmh 29.79 in1008.8 mb 0.00 in0.0 mm 0.00 in0.0 mm 0.00 in0.0 mm
12:36 PM 70.7°F21.5°C 63.1°F17.3°C 77% 4.0 mph NW6.4 kmh NW 9.0 mph14.5 kmh 29.79 in1008.8 mb 0.00 in0.0 mm 0.00 in0.0 mm 0.00 in0.0 mm
12:46 PM 71.2°F21.8°C 63.7°F17.6°C 77% 4.9 mph WNW7.9 kmh WNW 10.1 mph16.3 kmh 29.79 in1008.8 mb 0.00 in0.0 mm 0.00 in0.0 mm 0.00 in0.0 mm
12:56 PM 71.8°F22.1°C 63.5°F17.5°C 75% 4.9 mph WNW7.9 kmh WNW 8.9 mph14.3 kmh 29.78 in1008.5 mb 0.00 in0.0 mm 0.00 in0.0 mm 0.00 in0.0 mm
01:06 PM 72.5°F22.5°C 63.3°F17.4°C 73% 2.9 mph W4.7 kmh W 8.9 mph14.3 kmh 29.78 in1008.5 mb 0.00 in0.0 mm 0.00 in0.0 mm 0.00 in0.0 mm
01:16 PM 73.0°F22.8°C 63.5°F17.5°C 72% 4.0 mph NW6.4 kmh NW 10.1 mph16.3 kmh 29.77 in1008.1 mb 0.00 in0.0 mm 0.00 in0.0 mm 0.00 in0.0 mm
01:26 PM 74.5°F23.6°C 64.4°F18.0°C 71% 4.0 mph WNW6.4 kmh WNW 8.9 mph14.3 kmh 29.77 in1008.1 mb 0.00 in0.0 mm 0.00 in0.0 mm 0.00 in0.0 mm
01:36 PM 74.8°F23.8°C 64.0°F17.8°C 69% 4.9 mph WNW7.9 kmh WNW 10.1 mph16.3 kmh 29.76 in1007.8 mb 0.00 in0.0 mm 0.00 in0.0 mm 0.00 in0.0 mm
01:46 PM 75.2°F24.0°C 64.4°F18.0°C 69% 6.0 mph W9.7 kmh W 12.1 mph19.5 kmh 29.76 in1007.8 mb 0.00 in0.0 mm 0.00 in0.0 mm 0.00 in0.0 mm
01:56 PM 75.4°F24.1°C 64.6°F18.1°C 69% 6.9 mph SW11.1 kmh SW 12.1 mph19.5 kmh 29.76 in1007.8 mb 0.00 in0.0 mm 0.00 in0.0 mm 0.00 in0.0 mm
02:06 PM 75.4°F24.1°C 64.0°F17.8°C 68% 6.0 mph WSW9.7 kmh WSW 12.1 mph19.5 kmh 29.76 in1007.8 mb 0.00 in0.0 mm 0.00 in0.0 mm 0.00 in0.0 mm
02:16 PM 75.4°F24.1°C 64.0°F17.8°C 68% 6.9 mph WSW11.1 kmh WSW 14.1 mph22.7 kmh 29.76 in1007.8 mb 0.00 in0.0 mm 0.00 in0.0 mm 0.00 in0.0 mm
02:26 PM 74.1°F23.4°C 63.3°F17.4°C 69% 6.9 mph W11.1 kmh W 14.1 mph22.7 kmh 29.76 in1007.8 mb 0.00 in0.0 mm 0.00 in0.0 mm 0.00 in0.0 mm
02:36 PM 73.9°F23.3°C 63.9°F17.7°C 71% 6.0 mph WNW9.7 kmh WNW 12.1 mph19.5 kmh 29.76 in1007.8 mb 0.00 in0.0 mm 0.00 in0.0 mm 0.00 in0.0 mm
02:46 PM 73.8°F23.2°C 63.7°F17.6°C 71% 6.9 mph WSW11.1 kmh WSW 12.1 mph19.5 kmh 29.76 in1007.8 mb 0.00 in0.0 mm 0.00 in0.0 mm 0.00 in0.0 mm
02:56 PM 74.5°F23.6°C 64.0°F17.8°C 70% 6.0 mph W9.7 kmh W 10.1 mph16.3 kmh 29.76 in1007.8 mb 0.00 in0.0 mm 0.00 in0.0 mm 0.00 in0.0 mm
03:06 PM 74.1°F23.4°C 63.7°F17.6°C 70% 6.0 mph WNW9.7 kmh WNW 12.1 mph19.5 kmh 29.76 in1007.8 mb 0.00 in0.0 mm 0.00 in0.0 mm 0.00 in0.0 mm
03:16 PM 74.1°F23.4°C 63.7°F17.6°C 70% 6.9 mph SW11.1 kmh SW 13.0 mph20.9 kmh 29.76 in1007.8 mb 0.00 in0.0 mm 0.00 in0.0 mm 0.00 in0.0 mm
03:26 PM 73.9°F23.3°C 63.9°F17.7°C 71% 6.0 mph WNW9.7 kmh WNW 12.1 mph19.5 kmh 29.76 in1007.8 mb 0.00 in0.0 mm 0.00 in0.0 mm 0.00 in0.0 mm
03:36 PM 73.6°F23.1°C 63.7°F17.6°C 71% 6.9 mph W11.1 kmh W 12.1 mph19.5 kmh 29.76 in1007.8 mb 0.00 in0.0 mm 0.00 in0.0 mm 0.00 in0.0 mm
03:46 PM 73.6°F23.1°C 64.0°F17.8°C 72% 6.9 mph WSW11.1 kmh WSW 11.0 mph17.7 kmh 29.75 in1007.5 mb 0.00 in0.0 mm 0.00 in0.0 mm 0.00 in0.0 mm
03:56 PM 73.9°F23.3°C 63.5°F17.5°C 70% 6.0 mph W9.7 kmh W 11.0 mph17.7 kmh 29.76 in1007.8 mb 0.00 in0.0 mm 0.00 in0.0 mm 0.00 in0.0 mm
04:06 PM 73.0°F22.8°C 63.1°F17.3°C 71% 6.9 mph WSW11.1 kmh WSW 13.0 mph20.9 kmh 29.75 in1007.5 mb 0.00 in0.0 mm 0.00 in0.0 mm 0.00 in0.0 mm
04:16 PM 73.0°F22.8°C 63.5°F17.5°C 72% 4.9 mph WNW7.9 kmh WNW 10.1 mph16.3 kmh 29.75 in1007.5 mb 0.00 in0.0 mm 0.00 in0.0 mm 0.00 in0.0 mm
04:26 PM 73.6°F23.1°C 63.7°F17.6°C 71% 4.9 mph W7.9 kmh W 12.1 mph19.5 kmh 29.75 in1007.5 mb 0.00 in0.0 mm 0.00 in0.0 mm 0.00 in0.0 mm
04:36 PM 73.2°F22.9°C 63.7°F17.6°C 72% 4.9 mph WNW7.9 kmh WNW 10.1 mph16.3 kmh 29.75 in1007.5 mb 0.00 in0.0 mm 0.00 in0.0 mm 0.00 in0.0 mm
04:46 PM 73.2°F22.9°C 63.3°F17.4°C 71% 4.9 mph SW7.9 kmh SW 11.0 mph17.7 kmh 29.76 in1007.8 mb 0.00 in0.0 mm 0.00 in0.0 mm 0.00 in0.0 mm
04:56 PM 72.5°F22.5°C 63.0°F17.2°C 72% 6.9 mph WSW11.1 kmh WSW 12.1 mph19.5 kmh 29.76 in1007.8 mb 0.00 in0.0 mm 0.00 in0.0 mm 0.00 in0.0 mm
05:06 PM 72.7°F22.6°C 63.1°F17.3°C 72% 6.0 mph WSW9.7 kmh WSW 10.1 mph16.3 kmh 29.76 in1007.8 mb 0.00 in0.0 mm 0.00 in0.0 mm 0.00 in0.0 mm
05:16 PM 71.8°F22.1°C 62.6°F17.0°C 73% 6.0 mph NW9.7 kmh NW 10.1 mph16.3 kmh 29.75 in1007.5 mb 0.00 in0.0 mm 0.00 in0.0 mm 0.00 in0.0 mm
05:26 PM 72.0°F22.2°C 62.8°F17.1°C 73% 4.9 mph SSW7.9 kmh SSW 10.1 mph16.3 kmh 29.75 in1007.5 mb 0.00 in0.0 mm 0.00 in0.0 mm 0.00 in0.0 mm
05:36 PM 71.8°F22.1°C 63.0°F17.2°C 74% 4.0 mph WSW6.4 kmh WSW 8.1 mph13.0 kmh 29.75 in1007.5 mb 0.00 in0.0 mm 0.00 in0.0 mm 0.00 in0.0 mm
05:46 PM 70.5°F21.4°C 62.6°F17.0°C 76% 4.9 mph WSW7.9 kmh WSW 8.9 mph14.3 kmh 29.75 in1007.5 mb 0.00 in0.0 mm 0.00 in0.0 mm 0.00 in0.0 mm
05:56 PM 70.3°F21.3°C 62.1°F16.7°C 75% 4.0 mph W6.4 kmh W 10.1 mph16.3 kmh 29.75 in1007.5 mb 0.00 in0.0 mm 0.00 in0.0 mm 0.00 in0.0 mm
06:06 PM 70.9°F21.6°C 62.6°F17.0°C 75% 4.0 mph SSW6.4 kmh SSW 8.9 mph14.3 kmh 29.76 in1007.8 mb 0.00 in0.0 mm 0.00 in0.0 mm 0.00 in0.0 mm
06:16 PM 70.2°F21.2°C 62.2°F16.8°C 76% 4.0 mph WNW6.4 kmh WNW 8.1 mph13.0 kmh 29.75 in1007.5 mb 0.00 in0.0 mm 0.00 in0.0 mm 0.00 in0.0 mm
06:26 PM 69.6°F20.9°C 62.1°F16.7°C 77% 4.9 mph SW7.9 kmh SW 9.0 mph14.5 kmh 29.75 in1007.5 mb 0.00 in0.0 mm 0.00 in0.0 mm 0.00 in0.0 mm
06:36 PM 69.3°F20.7°C 62.1°F16.7°C 78% 4.0 mph SW6.4 kmh SW 8.9 mph14.3 kmh 29.76 in1007.8 mb 0.00 in0.0 mm 0.00 in0.0 mm 0.00 in0.0 mm
06:46 PM 69.3°F20.7°C 62.1°F16.7°C 78% 4.0 mph WSW6.4 kmh WSW 10.1 mph16.3 kmh 29.76 in1007.8 mb 0.00 in0.0 mm 0.00 in0.0 mm 0.00 in0.0 mm
06:56 PM 68.7°F20.4°C 61.5°F16.4°C 78% 4.0 mph WSW6.4 kmh WSW 8.9 mph14.3 kmh 29.77 in1008.1 mb 0.00 in0.0 mm 0.00 in0.0 mm 0.00 in0.0 mm
07:06 PM 67.8°F19.9°C 61.3°F16.3°C 80% 4.0 mph W6.4 kmh W 8.1 mph13.0 kmh 29.77 in1008.1 mb 0.00 in0.0 mm 0.00 in0.0 mm 0.00 in0.0 mm
07:16 PM 67.5°F19.7°C 61.3°F16.3°C 81% 2.9 mph WSW4.7 kmh WSW 6.9 mph11.1 kmh 29.77 in1008.1 mb 0.00 in0.0 mm 0.00 in0.0 mm 0.00 in0.0 mm
07:26 PM 66.4°F19.1°C 61.0°F16.1°C 83% 2.9 mph WSW4.7 kmh WSW 7.0 mph11.3 kmh 29.78 in1008.5 mb 0.00 in0.0 mm 0.00 in0.0 mm 0.00 in0.0 mm
07:36 PM 65.8°F18.8°C 60.8°F16.0°C 84% 4.0 mph WSW6.4 kmh WSW 8.1 mph13.0 kmh 29.78 in1008.5 mb 0.00 in0.0 mm 0.00 in0.0 mm 0.00 in0.0 mm
07:46 PM 65.5°F18.6°C 60.4°F15.8°C 84% 2.9 mph WSW4.7 kmh WSW 7.0 mph11.3 kmh 29.78 in1008.5 mb 0.00 in0.0 mm 0.00 in0.0 mm 0.00 in0.0 mm
07:56 PM 65.1°F18.4°C 60.4°F15.8°C 85% 2.9 mph WNW4.7 kmh WNW 6.0 mph9.7 kmh 29.78 in1008.5 mb 0.00 in0.0 mm 0.00 in0.0 mm 0.00 in0.0 mm
08:06 PM 65.1°F18.4°C 60.8°F16.0°C 86% 2.9 mph S4.7 kmh S 6.0 mph9.7 kmh 29.78 in1008.5 mb 0.00 in0.0 mm 0.00 in0.0 mm 0.00 in0.0 mm
08:16 PM 64.9°F18.3°C 60.6°F15.9°C 86% 2.9 mph SW4.7 kmh SW 4.0 mph6.4 kmh 29.79 in1008.8 mb 0.00 in0.0 mm 0.00 in0.0 mm 0.00 in0.0 mm
08:26 PM 64.9°F18.3°C 60.6°F15.9°C 86% 2.0 mph WSW3.2 kmh WSW 4.9 mph7.9 kmh 29.79 in1008.8 mb 0.00 in0.0 mm 0.00 in0.0 mm 0.00 in0.0 mm
08:36 PM 64.9°F18.3°C 60.6°F15.9°C 86% 2.0 mph W3.2 kmh W 4.9 mph7.9 kmh 29.80 in1009.1 mb 0.00 in0.0 mm 0.00 in0.0 mm 0.00 in0.0 mm
08:46 PM 64.9°F18.3°C 60.6°F15.9°C 86% 0.9 mph SW1.4 kmh SW 4.9 mph7.9 kmh 29.80 in1009.1 mb 0.00 in0.0 mm 0.00 in0.0 mm 0.00 in0.0 mm
08:56 PM 64.8°F18.2°C 60.4°F15.8°C 86% 2.0 mph WSW3.2 kmh WSW 4.9 mph7.9 kmh 29.80 in1009.1 mb 0.00 in0.0 mm 0.00 in0.0 mm 0.00 in0.0 mm
09:06 PM 64.8°F18.2°C 60.4°F15.8°C 86% 0.9 mph SW1.4 kmh SW 2.9 mph4.7 kmh 29.80 in1009.1 mb 0.00 in0.0 mm 0.00 in0.0 mm 0.00 in0.0 mm
09:16 PM 64.9°F18.3°C 60.6°F15.9°C 86% 0.9 mph WSW1.4 kmh WSW 5.0 mph8.0 kmh 29.81 in1009.5 mb 0.00 in0.0 mm 0.00 in0.0 mm 0.00 in0.0 mm
09:26 PM 64.8°F18.2°C 60.4°F15.8°C 86% 2.0 mph W3.2 kmh W 4.0 mph6.4 kmh 29.81 in1009.5 mb 0.00 in0.0 mm 0.00 in0.0 mm 0.00 in0.0 mm
09:36 PM 64.8°F18.2°C 60.4°F15.8°C 86% 0.9 mph SSE1.4 kmh SSE 4.0 mph6.4 kmh 29.82 in1009.8 mb 0.00 in0.0 mm 0.00 in0.0 mm 0.00 in0.0 mm
09:46 PM 64.8°F18.2°C 60.8°F16.0°C 87% 2.0 mph WSW3.2 kmh WSW 4.0 mph6.4 kmh 29.82 in1009.8 mb 0.00 in0.0 mm 0.00 in0.0 mm 0.00 in0.0 mm
09:56 PM 64.6°F18.1°C 60.6°F15.9°C 87% 2.0 mph WSW3.2 kmh WSW 2.9 mph4.7 kmh 29.82 in1009.8 mb 0.00 in0.0 mm 0.00 in0.0 mm 0.00 in0.0 mm
10:06 PM 64.6°F18.1°C 60.6°F15.9°C 87% 2.0 mph SW3.2 kmh SW 2.9 mph4.7 kmh 29.83 in1010.2 mb 0.00 in0.0 mm 0.00 in0.0 mm 0.00 in0.0 mm
10:16 PM 64.6°F18.1°C 60.6°F15.9°C 87% 0.9 mph NW1.4 kmh NW 2.9 mph4.7 kmh 29.83 in1010.2 mb 0.00 in0.0 mm 0.00 in0.0 mm 0.00 in0.0 mm
10:26 PM 64.6°F18.1°C 60.6°F15.9°C 87% 2.0 mph SW3.2 kmh SW 4.9 mph7.9 kmh 29.83 in1010.2 mb 0.00 in0.0 mm 0.00 in0.0 mm 0.00 in0.0 mm
10:36 PM 64.6°F18.1°C 60.6°F15.9°C 87% 0.9 mph WSW1.4 kmh WSW 2.9 mph4.7 kmh 29.83 in1010.2 mb 0.00 in0.0 mm 0.00 in0.0 mm 0.00 in0.0 mm
10:46 PM 64.6°F18.1°C 60.6°F15.9°C 87% 0.9 mph SW1.4 kmh SW 2.9 mph4.7 kmh 29.83 in1010.2 mb 0.00 in0.0 mm 0.00 in0.0 mm 0.00 in0.0 mm
10:56 PM 64.6°F18.1°C 60.6°F15.9°C 87% 0.9 mph W1.4 kmh W 2.0 mph3.2 kmh 29.83 in1010.2 mb 0.00 in0.0 mm 0.00 in0.0 mm 0.00 in0.0 mm
11:06 PM 64.6°F18.1°C 60.6°F15.9°C 87% 0.9 mph NW1.4 kmh NW 2.0 mph3.2 kmh 29.83 in1010.2 mb 0.00 in0.0 mm 0.00 in0.0 mm 0.00 in0.0 mm
11:16 PM 64.8°F18.2°C 60.8°F16.0°C 87% 2.0 mph W3.2 kmh W 4.0 mph6.4 kmh 29.83 in1010.2 mb 0.00 in0.0 mm 0.00 in0.0 mm 0.00 in0.0 mm
11:26 PM 64.8°F18.2°C 60.8°F16.0°C 87% 0.9 mph SW1.4 kmh SW 2.9 mph4.7 kmh 29.83 in1010.2 mb 0.00 in0.0 mm 0.00 in0.0 mm 0.00 in0.0 mm
11:36 PM 64.8°F18.2°C 60.8°F16.0°C 87% 0.9 mph WSW1.4 kmh WSW 2.0 mph3.2 kmh 29.83 in1010.2 mb 0.00 in0.0 mm 0.00 in0.0 mm 0.00 in0.0 mm
11:46 PM 64.8°F18.2°C 60.8°F16.0°C 87% 2.0 mph W3.2 kmh W 3.0 mph4.8 kmh 29.83 in1010.2 mb 0.00 in0.0 mm 0.00 in0.0 mm 0.00 in0.0 mm
11:56 PM 64.8°F18.2°C 60.8°F16.0°C 87% 0.9 mph WNW1.4 kmh WNW 2.9 mph4.7 kmh 29.82 in1009.8 mb 0.00 in0.0 mm 0.00 in0.0 mm 0.00 in0.0 mm